createdAt,value
2022-08-10T00:01:54.703Z,32.22
2022-08-10T00:04:23.716Z,32.20
2022-08-10T00:06:53.289Z,32.61
2022-08-10T00:09:21.478Z,32.58
2022-08-10T00:11:48.747Z,32.35
2022-08-10T00:14:16.301Z,32.53
2022-08-10T00:16:43.697Z,32.66
2022-08-10T00:19:11.074Z,32.54
2022-08-10T00:21:38.370Z,32.31
2022-08-10T00:24:05.750Z,32.59
2022-08-10T00:27:52.277Z,32.50
2022-08-10T00:29:20.501Z,32.77
2022-08-10T00:31:58.016Z,32.93
2022-08-10T00:34:28.460Z,32.77
2022-08-10T00:36:56.281Z,32.75
2022-08-10T00:39:24.057Z,32.96
2022-08-10T00:42:06.482Z,32.83
2022-08-10T00:44:44.231Z,33.36
2022-08-10T00:47:22.531Z,33.11
2022-08-10T00:50:00.601Z,33.13
2022-08-10T00:52:30.268Z,33.34
2022-08-10T00:54:58.297Z,33.62
2022-08-10T00:57:25.868Z,33.41
2022-08-10T00:59:59.571Z,33.93
2022-08-10T01:02:32.890Z,33.72
2022-08-10T01:05:04.018Z,33.98
2022-08-10T01:07:57.164Z,33.87
2022-08-10T01:10:32.848Z,33.83
2022-08-10T01:13:25.328Z,34.11
2022-08-10T01:16:10.101Z,34.32
2022-08-10T01:19:18.824Z,34.32
2022-08-10T01:21:58.684Z,34.06
2022-08-10T01:24:25.892Z,34.47
2022-08-10T01:27:17.527Z,34.51
2022-08-10T01:30:00.065Z,34.35
2022-08-10T01:32:45.349Z,34.86
2022-08-10T01:35:30.728Z,34.48
2022-08-10T01:38:07.038Z,34.75
2022-08-10T01:40:39.092Z,34.48
2022-08-10T01:43:10.358Z,34.78
2022-08-10T01:45:45.294Z,34.79
2022-08-10T01:48:31.718Z,35.33
2022-08-10T01:51:03.474Z,34.67
2022-08-10T01:53:41.106Z,35.12
2022-08-10T01:56:15.594Z,34.93
2022-08-10T01:58:45.423Z,35.22
2022-08-10T02:01:17.619Z,35.05
2022-08-10T02:04:05.302Z,35.00
2022-08-10T02:06:43.611Z,35.23
2022-08-10T02:09:15.962Z,35.33
2022-08-10T02:12:05.762Z,35.26
2022-08-10T02:14:43.375Z,35.09
2022-08-10T02:17:59.126Z,35.26
2022-08-10T02:20:11.382Z,35.12
2022-08-10T02:22:40.743Z,35.03
2022-08-10T02:25:10.949Z,35.37
2022-08-10T02:27:58.814Z,35.28
2022-08-10T02:30:29.131Z,35.16
2022-08-10T02:32:59.201Z,35.46
2022-08-10T02:35:28.487Z,34.92
2022-08-10T02:38:20.311Z,35.29
2022-08-10T02:42:18.701Z,35.45
2022-08-10T02:45:23.509Z,35.46
2022-08-10T02:46:47.875Z,35.44
2022-08-10T02:49:32.677Z,35.27
2022-08-10T02:52:06.585Z,35.44
2022-08-10T02:54:39.249Z,35.31
2022-08-10T02:57:16.593Z,35.39
2022-08-10T02:59:48.380Z,35.56
2022-08-10T03:02:35.939Z,35.76
2022-08-10T03:05:13.031Z,35.68
2022-08-10T03:07:55.463Z,35.70
2022-08-10T03:10:28.725Z,35.71
2022-08-10T03:12:59.784Z,35.38
2022-08-10T03:15:30.023Z,35.45
2022-08-10T03:17:59.034Z,35.18
2022-08-10T03:20:38.772Z,35.12
2022-08-10T03:23:23.483Z,35.10
2022-08-10T03:25:54.800Z,35.22
2022-08-10T03:28:24.875Z,35.56
2022-08-10T03:30:53.148Z,35.79
2022-08-10T03:33:22.464Z,35.90
2022-08-10T03:36:43.572Z,36.36
2022-08-10T03:38:40.831Z,35.92
2022-08-10T03:41:16.278Z,36.47
2022-08-10T03:43:49.044Z,37.03
2022-08-10T03:46:19.754Z,35.68
2022-08-10T03:48:50.261Z,37.06
2022-08-10T03:51:22.905Z,36.64
2022-08-10T03:54:05.770Z,36.40
2022-08-10T03:56:36.710Z,35.28
2022-08-10T03:59:05.892Z,35.50
2022-08-10T04:02:47.061Z,36.06
2022-08-10T04:04:25.055Z,35.74
2022-08-10T04:06:58.094Z,36.34
2022-08-10T04:09:53.353Z,35.81
2022-08-10T04:12:21.980Z,34.95
2022-08-10T04:14:52.051Z,34.61
2022-08-10T04:18:03.483Z,33.97
2022-08-10T04:20:35.834Z,34.13
2022-08-10T04:23:28.906Z,33.93
2022-08-10T04:25:56.909Z,33.30
2022-08-10T04:28:24.709Z,33.58
2022-08-10T04:30:54.961Z,33.09
2022-08-10T04:33:24.336Z,33.31
2022-08-10T04:35:53.091Z,33.34
2022-08-10T04:38:21.417Z,33.22
2022-08-10T04:40:48.896Z,33.07
2022-08-10T04:43:16.367Z,32.88
2022-08-10T04:45:51.443Z,32.87
2022-08-10T04:48:41.634Z,33.01
2022-08-10T04:51:17.159Z,32.84
2022-08-10T04:54:05.070Z,32.72
2022-08-10T04:56:37.847Z,32.54
2022-08-10T04:59:10.236Z,32.31
2022-08-10T05:02:28.695Z,32.35
2022-08-10T05:04:37.604Z,32.52
2022-08-10T05:07:17.064Z,32.53
2022-08-10T05:10:02.997Z,32.14
2022-08-10T05:12:36.463Z,32.28
2022-08-10T05:15:09.317Z,32.32
2022-08-10T05:17:38.254Z,32.36
2022-08-10T05:20:07.973Z,32.15
2022-08-10T05:22:45.939Z,32.10
2022-08-10T05:25:15.990Z,31.85
2022-08-10T05:27:44.935Z,31.77
2022-08-10T05:30:15.375Z,32.23
2022-08-10T05:32:56.624Z,31.60
2022-08-10T05:35:55.554Z,32.05
2022-08-10T05:38:22.338Z,31.57
2022-08-10T05:40:50.425Z,31.85
2022-08-10T05:43:20.344Z,31.75
2022-08-10T05:46:19.328Z,31.68
2022-08-10T05:48:55.716Z,31.48
2022-08-10T05:51:26.301Z,31.03
2022-08-10T05:54:01.940Z,31.15
2022-08-10T05:56:56.260Z,31.42
2022-08-10T06:00:10.923Z,30.76
2022-08-10T06:02:41.087Z,30.50
2022-08-10T06:05:15.991Z,30.51
2022-08-10T06:07:49.347Z,30.37
2022-08-10T06:10:31.086Z,30.38
2022-08-10T06:13:30.958Z,30.55
2022-08-10T06:16:07.815Z,30.27
2022-08-10T06:18:37.018Z,30.03
2022-08-10T06:21:05.304Z,30.13
2022-08-10T06:23:33.697Z,30.01
2022-08-10T06:26:09.814Z,29.61
2022-08-10T06:29:02.153Z,29.49
2022-08-10T06:31:46.656Z,29.75
2022-08-10T06:34:17.945Z,29.93
2022-08-10T06:36:47.193Z,29.75
2022-08-10T06:39:32.937Z,30.01
2022-08-10T06:42:16.535Z,29.56
2022-08-10T06:44:57.208Z,29.88
2022-08-10T06:47:35.313Z,29.93
2022-08-10T06:50:12.631Z,29.68
2022-08-10T06:52:41.887Z,29.72
2022-08-10T06:55:16.862Z,30.13
2022-08-10T06:57:59.786Z,29.79
2022-08-10T07:00:33.293Z,29.48
2022-08-10T07:03:08.029Z,29.09
2022-08-10T07:05:37.247Z,28.86
2022-08-10T07:08:05.493Z,28.95
2022-08-10T07:10:45.410Z,29.25
2022-08-10T07:14:14.410Z,29.36
2022-08-10T07:16:08.251Z,28.89
2022-08-10T07:18:36.762Z,28.33
2022-08-10T07:21:05.812Z,28.46
2022-08-10T07:23:57.922Z,28.73
2022-08-10T07:26:25.214Z,28.37
2022-08-10T07:28:53.090Z,29.04
2022-08-10T07:31:55.236Z,28.86
2022-08-10T07:34:10.094Z,28.49
2022-08-10T07:36:41.178Z,28.35
2022-08-10T07:39:10.628Z,28.89
2022-08-10T07:41:42.698Z,28.59
2022-08-10T07:44:12.709Z,28.85
2022-08-10T07:46:46.037Z,29.06
2022-08-10T07:49:24.195Z,27.49
2022-08-10T07:51:55.116Z,27.55
2022-08-10T07:54:25.526Z,27.97
2022-08-10T07:56:55.898Z,28.30
2022-08-10T07:59:28.428Z,28.36
2022-08-10T08:01:58.264Z,28.08
2022-08-10T08:04:26.230Z,27.92
2022-08-10T08:06:55.104Z,27.67
2022-08-10T08:09:23.816Z,27.54
2022-08-10T08:11:53.211Z,27.67
2022-08-10T08:14:22.556Z,27.18
2022-08-10T08:16:53.509Z,27.18
2022-08-10T08:19:35.858Z,26.63
2022-08-10T08:24:05.537Z,26.35
2022-08-10T08:24:57.948Z,26.18
2022-08-10T08:27:27.796Z,26.29
2022-08-10T08:29:55.861Z,26.17
2022-08-10T08:32:26.148Z,26.13
2022-08-10T08:34:59.825Z,26.60
2022-08-10T08:38:29.255Z,26.16
2022-08-10T08:40:25.485Z,25.63
2022-08-10T08:43:21.682Z,24.68
2022-08-10T08:46:28.933Z,24.67
2022-08-10T08:50:04.974Z,25.26
2022-08-10T08:52:56.353Z,25.14
2022-08-10T08:56:05.637Z,24.77
2022-08-10T08:59:02.032Z,25.12
2022-08-10T09:01:41.239Z,24.63
2022-08-10T09:04:16.131Z,24.86
2022-08-10T09:08:00.554Z,25.10
2022-08-10T09:10:14.353Z,24.71
2022-08-10T09:12:50.155Z,25.43
2022-08-10T09:15:49.501Z,25.09
2022-08-10T09:18:25.313Z,24.42
2022-08-10T09:21:10.277Z,23.88
2022-08-10T09:24:04.262Z,23.87
2022-08-10T09:26:42.659Z,23.58
2022-08-10T09:29:15.707Z,23.33
2022-08-10T09:32:54.964Z,23.50
2022-08-10T09:36:28.203Z,23.08
2022-08-10T09:38:17.173Z,23.59
2022-08-10T09:41:03.968Z,23.83
2022-08-10T09:44:07.382Z,23.00
2022-08-10T09:46:59.113Z,22.82
2022-08-10T09:49:57.065Z,22.82
2022-08-10T09:53:02.508Z,22.43
2022-08-10T09:56:17.824Z,23.07
2022-08-10T09:59:26.759Z,22.68
2022-08-10T10:02:11.221Z,23.56
2022-08-10T10:04:53.218Z,23.09
2022-08-10T10:07:27.970Z,22.09
2022-08-10T10:10:01.281Z,21.81
2022-08-10T10:12:57.362Z,21.97
2022-08-10T10:15:44.470Z,22.51
2022-08-10T10:18:14.649Z,22.13
2022-08-10T10:21:03.403Z,21.83
2022-08-10T10:24:21.290Z,21.50
2022-08-10T10:26:52.627Z,21.52
2022-08-10T10:29:56.357Z,21.03
2022-08-10T10:32:42.524Z,21.58
2022-08-10T10:35:36.188Z,21.08
2022-08-10T10:38:06.992Z,21.19
2022-08-10T10:40:55.993Z,21.04
2022-08-10T10:43:44.335Z,21.08
2022-08-10T10:46:54.395Z,21.37
2022-08-10T10:49:43.543Z,21.26
2022-08-10T10:52:19.868Z,21.41
2022-08-10T10:55:13.430Z,21.01
2022-08-10T10:58:01.229Z,21.29
2022-08-10T11:00:46.614Z,20.92
2022-08-10T11:03:52.531Z,21.76
2022-08-10T11:06:27.281Z,21.60
2022-08-10T11:10:03.821Z,20.67
2022-08-10T11:12:29.500Z,21.51
2022-08-10T11:15:08.932Z,21.56
2022-08-10T11:17:46.318Z,22.08
2022-08-10T11:20:24.800Z,21.08
2022-08-10T11:23:13.897Z,21.24
2022-08-10T11:25:56.651Z,20.92
2022-08-10T11:28:48.968Z,20.66
2022-08-10T11:31:16.293Z,21.03
2022-08-10T11:34:47.583Z,20.86
2022-08-10T11:36:55.740Z,21.44
2022-08-10T11:39:39.338Z,21.42
2022-08-10T11:42:36.080Z,20.54
2022-08-10T11:45:06.261Z,21.50
2022-08-10T11:47:46.396Z,21.27
2022-08-10T11:50:22.016Z,20.73
2022-08-10T11:52:54.538Z,21.32
2022-08-10T11:55:24.650Z,21.32
2022-08-10T11:57:57.560Z,21.35
2022-08-10T12:00:32.665Z,20.81
2022-08-10T12:03:05.977Z,21.27
2022-08-10T12:05:52.542Z,20.43
2022-08-10T12:10:05.134Z,20.50
2022-08-10T12:11:25.335Z,20.99
2022-08-10T12:14:24.776Z,21.18
2022-08-10T12:17:02.277Z,20.54
2022-08-10T12:19:59.392Z,20.59
2022-08-10T12:23:02.122Z,20.34
2022-08-10T12:25:57.333Z,20.42
2022-08-10T12:28:50.959Z,20.39
2022-08-10T12:31:28.214Z,20.70
2022-08-10T12:34:06.270Z,21.32
2022-08-10T12:36:42.364Z,20.05
2022-08-10T12:39:25.709Z,20.83
2022-08-10T12:42:38.940Z,20.73
2022-08-10T12:45:26.089Z,20.89
2022-08-10T12:48:03.595Z,19.73
2022-08-10T12:50:40.779Z,20.15
2022-08-10T12:53:35.707Z,20.02
2022-08-10T12:56:06.251Z,20.72
2022-08-10T12:58:58.713Z,20.10
2022-08-10T13:02:06.570Z,20.62
2022-08-10T13:04:25.019Z,20.35
2022-08-10T13:06:53.860Z,20.33
2022-08-10T13:09:24.419Z,20.59
2022-08-10T13:12:37.309Z,20.90
2022-08-10T13:15:00.428Z,20.61
2022-08-10T13:17:39.225Z,20.08
2022-08-10T13:20:26.644Z,20.13
2022-08-10T13:22:58.181Z,20.51
2022-08-10T13:25:35.427Z,20.88
2022-08-10T13:28:36.689Z,20.30
2022-08-10T13:31:02.744Z,20.90
2022-08-10T13:34:41.470Z,20.98
2022-08-10T13:36:33.720Z,20.45
2022-08-10T13:39:03.334Z,21.22
2022-08-10T13:41:42.695Z,20.70
2022-08-10T13:44:14.780Z,21.09
2022-08-10T13:46:50.243Z,20.86
2022-08-10T13:49:19.381Z,20.66
2022-08-10T13:51:57.374Z,21.10
2022-08-10T13:54:37.566Z,20.70
2022-08-10T13:57:06.146Z,21.00
2022-08-10T14:00:37.286Z,21.50
2022-08-10T14:02:40.972Z,20.95
2022-08-10T14:05:10.157Z,20.94
2022-08-10T14:08:00.227Z,21.28
2022-08-10T14:11:04.056Z,21.44
2022-08-10T14:13:27.111Z,21.47
2022-08-10T14:15:56.776Z,21.24
2022-08-10T14:18:25.060Z,21.52
2022-08-10T14:20:54.930Z,21.55
2022-08-10T14:23:22.287Z,21.47
2022-08-10T14:25:56.235Z,21.77
2022-08-10T14:28:33.504Z,21.40
2022-08-10T14:31:09.858Z,21.70
2022-08-10T14:33:42.806Z,21.43
2022-08-10T14:36:19.499Z,21.60
2022-08-10T14:38:56.126Z,21.71
2022-08-10T14:42:01.426Z,22.10
2022-08-10T14:44:21.245Z,21.85
2022-08-10T14:46:55.912Z,21.77
2022-08-10T14:49:27.176Z,22.21
2022-08-10T14:52:01.453Z,22.05
2022-08-10T14:54:32.757Z,22.10
2022-08-10T14:57:11.380Z,22.38
2022-08-10T15:00:22.974Z,22.33
2022-08-10T15:02:52.932Z,22.22
2022-08-10T15:05:39.287Z,22.49
2022-08-10T15:08:10.060Z,22.30
2022-08-10T15:10:38.413Z,22.00
2022-08-10T15:13:33.638Z,22.24
2022-08-10T15:16:13.122Z,22.55
2022-08-10T15:18:57.901Z,22.27
2022-08-10T15:21:35.660Z,22.51
2022-08-10T15:24:37.098Z,22.54
2022-08-10T15:27:08.607Z,22.33
2022-08-10T15:29:56.936Z,22.77
2022-08-10T15:33:00.961Z,22.39
2022-08-10T15:35:49.164Z,22.65
2022-08-10T15:38:34.840Z,22.66
2022-08-10T15:41:03.630Z,22.70
2022-08-10T15:43:44.916Z,22.90
2022-08-10T15:46:29.756Z,23.01
2022-08-10T15:49:03.779Z,23.21
2022-08-10T15:51:54.343Z,22.83
2022-08-10T15:54:33.245Z,22.72
2022-08-10T15:57:07.201Z,23.02
2022-08-10T15:59:45.172Z,22.72
2022-08-10T16:02:17.695Z,23.46
2022-08-10T16:05:14.286Z,23.33
2022-08-10T16:07:49.143Z,22.79
2022-08-10T16:10:28.843Z,23.20
2022-08-10T16:13:50.378Z,22.88
2022-08-10T16:15:57.249Z,22.92
2022-08-10T16:18:30.534Z,23.59
2022-08-10T16:21:08.683Z,23.20
2022-08-10T16:23:41.106Z,23.72
2022-08-10T16:26:15.282Z,23.76
2022-08-10T16:28:55.465Z,23.87
2022-08-10T16:31:26.114Z,24.18
2022-08-10T16:34:01.255Z,24.02
2022-08-10T16:36:40.666Z,24.34
2022-08-10T16:39:18.122Z,24.41
2022-08-10T16:42:06.068Z,24.33
2022-08-10T16:44:42.137Z,24.60
2022-08-10T16:47:11.149Z,24.36
2022-08-10T16:49:40.129Z,24.71
2022-08-10T16:52:11.538Z,24.72
2022-08-10T16:54:42.165Z,24.86
2022-08-10T16:57:13.587Z,24.67
2022-08-10T16:59:42.050Z,24.46
2022-08-10T17:02:17.502Z,24.97
2022-08-10T17:04:46.872Z,25.32
2022-08-10T17:07:17.729Z,25.13
2022-08-10T17:09:54.014Z,25.32
2022-08-10T17:12:27.717Z,25.30
2022-08-10T17:15:09.111Z,25.64
2022-08-10T17:17:52.131Z,25.42
2022-08-10T17:20:32.049Z,25.71
2022-08-10T17:23:08.276Z,25.77
2022-08-10T17:25:48.574Z,25.60
2022-08-10T17:28:34.659Z,25.50
2022-08-10T17:31:53.222Z,25.66
2022-08-10T17:34:10.070Z,25.64
2022-08-10T17:36:38.364Z,25.39
2022-08-10T17:39:11.818Z,25.73
2022-08-10T17:41:41.457Z,25.58
2022-08-10T17:44:10.742Z,25.52
2022-08-10T17:46:44.055Z,25.79
2022-08-10T17:49:13.875Z,25.93
2022-08-10T17:51:42.940Z,25.80
2022-08-10T17:54:34.962Z,25.99
2022-08-10T17:57:09.600Z,26.22
2022-08-10T17:59:39.465Z,26.31
2022-08-10T18:02:13.972Z,26.01
2022-08-10T18:04:48.879Z,26.29
2022-08-10T18:07:18.435Z,26.37
2022-08-10T18:09:54.597Z,26.28
2022-08-10T18:12:36.265Z,26.39
2022-08-10T18:15:12.212Z,26.45
2022-08-10T18:17:46.232Z,26.63
2022-08-10T18:20:20.291Z,26.30
2022-08-10T18:22:57.574Z,26.51
2022-08-10T18:25:30.329Z,26.56
2022-08-10T18:28:04.012Z,26.66
2022-08-10T18:30:35.933Z,26.84
2022-08-10T18:33:09.446Z,26.74
2022-08-10T18:35:39.117Z,26.88
2022-08-10T18:38:07.890Z,26.97
2022-08-10T18:40:38.385Z,26.87
2022-08-10T18:44:04.406Z,27.14
2022-08-10T18:45:58.337Z,27.15
2022-08-10T18:48:34.465Z,27.28
2022-08-10T18:51:06.305Z,27.35
2022-08-10T18:53:38.029Z,27.34
2022-08-10T18:56:39.582Z,27.36
2022-08-10T18:59:25.696Z,27.45
2022-08-10T19:02:08.484Z,27.13
2022-08-10T19:05:05.091Z,27.07
2022-08-10T19:08:11.183Z,27.34
2022-08-10T19:10:50.596Z,27.24
2022-08-10T19:13:30.668Z,27.54
2022-08-10T19:16:10.183Z,27.54
2022-08-10T19:18:42.246Z,27.59
2022-08-10T19:21:27.239Z,27.69
2022-08-10T19:24:12.175Z,27.78
2022-08-10T19:27:30.409Z,27.97
2022-08-10T19:30:13.368Z,27.43
2022-08-10T19:32:56.274Z,27.62
2022-08-10T19:36:02.963Z,27.43
2022-08-10T19:39:01.023Z,27.56
2022-08-10T19:41:44.193Z,27.20
2022-08-10T19:44:41.693Z,27.42
2022-08-10T19:47:26.553Z,27.59
2022-08-10T19:50:16.329Z,27.88
2022-08-10T19:52:54.556Z,27.74
2022-08-10T19:55:28.946Z,28.16
2022-08-10T19:57:59.614Z,28.27
2022-08-10T20:00:41.228Z,28.21
2022-08-10T20:03:41.677Z,28.13
2022-08-10T20:06:25.148Z,27.89
2022-08-10T20:09:01.534Z,28.04
2022-08-10T20:11:45.694Z,27.94
2022-08-10T20:14:21.305Z,27.94
2022-08-10T20:16:51.791Z,28.11
2022-08-10T20:19:23.915Z,28.43
2022-08-10T20:22:02.783Z,27.92
2022-08-10T20:24:52.672Z,28.26
2022-08-10T20:27:59.759Z,28.20
2022-08-10T20:30:17.946Z,27.96
2022-08-10T20:33:08.267Z,27.69
2022-08-10T20:35:46.766Z,27.85
2022-08-10T20:38:27.313Z,27.83
2022-08-10T20:41:03.676Z,27.94
2022-08-10T20:43:41.452Z,28.02
2022-08-10T20:46:18.907Z,28.05
2022-08-10T20:49:15.430Z,27.89
2022-08-10T20:51:58.777Z,27.71
2022-08-10T20:54:34.184Z,28.25
2022-08-10T20:57:53.548Z,27.88
2022-08-10T21:00:13.107Z,28.51
2022-08-10T21:02:57.831Z,28.36
2022-08-10T21:05:54.716Z,28.15
2022-08-10T21:09:05.340Z,28.29
2022-08-10T21:12:04.524Z,28.36
2022-08-10T21:15:00.388Z,28.86
2022-08-10T21:17:51.617Z,28.72
2022-08-10T21:20:47.003Z,28.99
2022-08-10T21:23:17.174Z,28.81
2022-08-10T21:26:09.447Z,28.92
2022-08-10T21:28:52.037Z,29.24
2022-08-10T21:31:48.481Z,29.03
2022-08-10T21:34:31.765Z,29.11
2022-08-10T21:37:39.853Z,29.10
2022-08-10T21:44:08.878Z,29.11
2022-08-10T21:47:10.925Z,29.44
2022-08-10T21:50:18.943Z,29.37
2022-08-10T21:53:44.754Z,29.16
2022-08-10T21:56:48.299Z,29.17
2022-08-10T21:59:56.217Z,29.36
2022-08-10T22:02:50.470Z,29.29
2022-08-10T22:05:44.494Z,29.20
2022-08-10T22:08:33.596Z,29.33
2022-08-10T22:11:23.177Z,29.41
2022-08-10T22:14:10.667Z,29.68
2022-08-10T22:17:04.514Z,29.65
2022-08-10T22:19:55.919Z,29.79
2022-08-10T22:23:04.628Z,29.72
2022-08-10T22:26:35.783Z,29.88
2022-08-10T22:29:42.697Z,30.43
2022-08-10T22:31:25.015Z,29.53
2022-08-10T22:32:50.534Z,30.01
2022-08-10T22:36:08.724Z,29.94
2022-08-10T22:39:11.302Z,29.85
2022-08-10T22:42:10.210Z,30.17
2022-08-10T22:45:01.385Z,30.20
2022-08-10T22:47:51.866Z,30.02
2022-08-10T22:50:26.723Z,29.86
2022-08-10T22:53:07.678Z,30.20
2022-08-10T22:55:59.264Z,30.38
2022-08-10T22:58:42.144Z,30.33
2022-08-10T23:01:12.337Z,30.48
2022-08-10T23:03:53.050Z,30.46
2022-08-10T23:06:28.296Z,30.64
2022-08-10T23:09:01.809Z,30.41
2022-08-10T23:11:35.755Z,30.67
2022-08-10T23:14:06.147Z,30.75
2022-08-10T23:17:13.717Z,30.93
2022-08-10T23:19:45.212Z,30.77
2022-08-10T23:22:15.495Z,30.92
2022-08-10T23:24:55.318Z,31.15
2022-08-10T23:27:38.672Z,31.11
2022-08-10T23:30:17.552Z,31.02
2022-08-10T23:32:50.085Z,30.88
2022-08-10T23:36:29.558Z,31.41
2022-08-10T23:38:14.478Z,31.10
2022-08-10T23:40:49.307Z,31.10
2022-08-10T23:43:19.129Z,31.16
2022-08-10T23:45:54.493Z,31.53
2022-08-10T23:48:27.564Z,31.59
2022-08-10T23:50:59.800Z,31.78
2022-08-10T23:53:36.926Z,31.97
2022-08-10T23:56:10.761Z,32.00
2022-08-10T23:58:47.284Z,31.96
